CheckWX is a tool to help pilots better visualize weather data.  It is not intended as a substitute for an official pre-flight weather briefing.

06:12:40 UTC

KRDD TAF
Redding Municipal Airport
Redding, California, USA
KRDD 280520Z 2806/2906 VRB04KT P6SM SCT250 FM282000 16006KT P6SM SCT250

Feb-28@
06:00 UTC

Feb-28 @ 06:00 UTC

Feb-28@
20:00 UTC

Feb-28 @ 20:00 UTC

KRDD 280520Z 2806/2906 VRB04KT P6SM SCT250
Wind
  • Variable at 4 KTS
Cloud Levels
  • Scattered at 25,000' AGL

Feb-28@
20:00 UTC

Feb-28 @ 20:00 UTC

Feb-29@
06:00 UTC

Feb-29 @ 06:00 UTC

FM282000 16006KT P6SM SCT250

From

From Standard forecast or significant change

Wind
  • 160° at 6 KTS
Cloud Levels
  • Scattered at 25,000' AGL